Time;durP1;ratioP1;P1;durP2;ratioP2;P2;SDS_P1;SDS_P2;PMS_P1;PMS_P2;Temp;Humidity;BMP_temperature;BMP_pressure;BME280_temperature;BME280_humidity;BME280_pressure;Samples;Min_cycle;Max_cycle;Signal;HPM_P1;HPM_P2
2023/08/20 00:01:13;;;;;;;11.40;4.15;;;;;;;;;;5008914;28;20046;-71
2023/08/20 00:03:41;;;;;;;11.73;4.07;;;;;;;;;;5014228;28;20050;-72
2023/08/20 00:06:07;;;;;;;12.75;5.10;;;;;;;;;;5002724;28;20099;-72
2023/08/20 00:08:34;;;;;;;11.68;5.75;;;;;;;;;;5002735;28;20053;-72
2023/08/20 00:11:00;;;;;;;11.25;5.40;;;;;;;;;;5012755;28;20038;-71
2023/08/20 00:13:26;;;;;;;11.00;4.82;;;;;;;;;;5011844;28;20098;-71
2023/08/20 00:15:52;;;;;;;12.68;4.00;;;;;;;;;;5023671;28;20033;-72
2023/08/20 00:18:18;;;;;;;12.10;4.20;;;;;;;;;;4994785;28;20050;-71
2023/08/20 00:20:45;;;;;;;9.23;4.20;;;;;;;;;;5017328;28;20056;-72
2023/08/20 00:23:11;;;;;;;14.65;4.32;;;;;;;;;;5019917;28;20050;-72
2023/08/20 00:25:37;;;;;;;9.90;3.75;;;;;;;;;;5007176;28;20142;-72
2023/08/20 00:28:04;;;;;;;12.35;4.40;;;;;;;;;;5029329;28;20042;-72
2023/08/20 00:30:30;;;;;;;10.13;4.05;;;;;;;;;;4997297;28;20041;-72
2023/08/20 00:32:56;;;;;;;8.52;3.90;;;;;;;;;;5003473;28;20045;-72
2023/08/20 00:35:22;;;;;;;8.38;3.75;;;;;;;;;;5009841;28;20038;-72
2023/08/20 00:37:48;;;;;;;11.25;3.85;;;;;;;;;;5011443;28;20049;-72
2023/08/20 00:40:14;;;;;;;10.25;3.90;;;;;;;;;;5007700;28;20041;-72
2023/08/20 00:42:40;;;;;;;10.27;3.50;;;;;;;;;;5014520;28;20752;-72
2023/08/20 00:45:06;;;;;;;9.27;3.63;;;;;;;;;;5007875;28;20046;-71
2023/08/20 00:47:32;;;;;;;12.52;3.85;;;;;;;;;;5006632;28;20046;-72
2023/08/20 00:49:58;;;;;;;11.85;3.65;;;;;;;;;;5019002;28;20046;-72
2023/08/20 00:52:24;;;;;;;14.90;4.38;;;;;;;;;;5005639;28;20056;-72
2023/08/20 00:54:51;;;;;;;9.13;3.58;;;;;;;;;;5010956;28;20056;-72
2023/08/20 00:57:20;;;;;;;8.50;4.20;;;;;;;;;;5011273;28;20050;-72
2023/08/20 00:59:49;;;;;;;12.07;3.90;;;;;;;;;;5020013;28;20384;-72
2023/08/20 01:02:15;;;;;;;9.80;4.40;;;;;;;;;;5024279;28;20050;-72
2023/08/20 01:04:42;;;;;;;8.77;4.22;;;;;;;;;;5009877;28;20046;-72
2023/08/20 01:07:27;;;;;;;9.45;4.35;;;;;;;;;;5010899;28;20141;-72
2023/08/20 01:10:05;;;;;;;12.40;4.63;;;;;;;;;;5015748;28;20419;-72
2023/08/20 01:12:32;;;;;;;11.15;4.25;;;;;;;;;;5022288;28;20050;-72
2023/08/20 01:14:58;;;;;;;12.38;3.63;;;;;;;;;;5010651;28;20451;-72
2023/08/20 01:17:24;;;;;;;8.55;4.10;;;;;;;;;;5011789;28;20095;-72
2023/08/20 01:19:50;;;;;;;19.17;7.57;;;;;;;;;;5019198;28;20044;-72
2023/08/20 01:22:19;;;;;;;9.95;4.07;;;;;;;;;;5013862;28;20496;-72
2023/08/20 01:24:52;;;;;;;13.35;3.67;;;;;;;;;;5003038;28;20095;-72
2023/08/20 01:27:24;;;;;;;12.90;4.77;;;;;;;;;;5015210;28;20099;-72
2023/08/20 01:29:50;;;;;;;13.95;3.47;;;;;;;;;;5004859;28;20482;-72
2023/08/20 01:32:17;;;;;;;11.38;2.83;;;;;;;;;;5014486;28;20067;-72
2023/08/20 01:34:43;;;;;;;12.60;3.53;;;;;;;;;;5025968;28;20042;-72
2023/08/20 01:37:09;;;;;;;8.73;3.42;;;;;;;;;;5030483;28;20128;-72
2023/08/20 01:39:35;;;;;;;7.95;3.20;;;;;;;;;;5028669;28;20046;-72
2023/08/20 01:42:01;;;;;;;11.23;3.63;;;;;;;;;;5016171;28;20385;-72
2023/08/20 01:44:27;;;;;;;11.23;3.28;;;;;;;;;;5008509;28;20053;-72
2023/08/20 01:46:53;;;;;;;10.15;3.58;;;;;;;;;;5017384;28;20045;-72
2023/08/20 01:49:19;;;;;;;13.32;3.25;;;;;;;;;;4995689;28;20049;-72
2023/08/20 01:51:45;;;;;;;10.20;3.60;;;;;;;;;;4993720;28;20041;-72
2023/08/20 01:54:12;;;;;;;12.90;4.03;;;;;;;;;;4993027;28;20054;-72
2023/08/20 01:56:38;;;;;;;13.38;3.55;;;;;;;;;;4992367;28;20058;-72
2023/08/20 01:59:04;;;;;;;10.68;3.55;;;;;;;;;;5010306;28;20045;-72
2023/08/20 02:01:30;;;;;;;12.93;4.00;;;;;;;;;;4991179;28;20053;-72
2023/08/20 02:03:56;;;;;;;12.88;4.13;;;;;;;;;;4996135;28;20451;-72
2023/08/20 02:06:22;;;;;;;11.82;4.10;;;;;;;;;;5017200;28;20591;-72
2023/08/20 02:08:48;;;;;;;11.35;4.57;;;;;;;;;;5010279;28;20132;-71
2023/08/20 02:11:14;;;;;;;13.40;4.43;;;;;;;;;;5026992;28;20096;-72
2023/08/20 02:13:40;;;;;;;12.98;4.10;;;;;;;;;;5000888;28;20045;-72
2023/08/20 02:16:06;;;;;;;14.00;4.43;;;;;;;;;;5026841;28;20045;-72
2023/08/20 02:18:33;;;;;;;11.98;4.85;;;;;;;;;;5021998;28;20057;-72
2023/08/20 02:20:59;;;;;;;10.38;4.40;;;;;;;;;;5019403;28;20056;-72
2023/08/20 02:23:25;;;;;;;10.98;4.70;;;;;;;;;;5012474;28;20102;-72
2023/08/20 02:25:51;;;;;;;15.73;4.72;;;;;;;;;;4994406;28;20045;-72
2023/08/20 02:28:17;;;;;;;15.05;4.88;;;;;;;;;;5022510;28;20046;-72
2023/08/20 02:30:44;;;;;;;11.77;4.63;;;;;;;;;;5024616;28;20048;-72
2023/08/20 02:33:10;;;;;;;12.07;4.13;;;;;;;;;;5004748;28;20045;-72
2023/08/20 02:35:39;;;;;;;14.15;4.20;;;;;;;;;;4995780;28;20072;-72
2023/08/20 02:38:06;;;;;;;11.82;4.30;;;;;;;;;;5020192;28;20573;-72
2023/08/20 02:40:32;;;;;;;13.23;4.18;;;;;;;;;;5026385;28;20046;-72
2023/08/20 02:42:58;;;;;;;12.65;4.40;;;;;;;;;;5009328;28;20358;-72
2023/08/20 02:45:25;;;;;;;11.75;4.55;;;;;;;;;;5012332;28;20034;-72
2023/08/20 02:47:51;;;;;;;13.02;4.22;;;;;;;;;;5021714;28;20046;-72
2023/08/20 02:50:17;;;;;;;15.82;4.20;;;;;;;;;;5023333;28;20101;-72
2023/08/20 02:52:43;;;;;;;14.27;4.20;;;;;;;;;;5019854;28;20050;-71
2023/08/20 02:55:09;;;;;;;8.07;4.00;;;;;;;;;;5015166;28;20049;-72
2023/08/20 02:57:36;;;;;;;11.25;4.57;;;;;;;;;;5024630;28;20049;-72
2023/08/20 03:00:02;;;;;;;12.27;4.85;;;;;;;;;;5009573;28;20392;-72
2023/08/20 03:02:28;;;;;;;10.02;4.65;;;;;;;;;;5020477;28;20088;-72
2023/08/20 03:04:55;;;;;;;10.55;4.63;;;;;;;;;;5019576;28;20076;-72
2023/08/20 03:07:22;;;;;;;11.63;4.70;;;;;;;;;;5028715;28;20057;-72
2023/08/20 03:09:48;;;;;;;9.55;4.32;;;;;;;;;;5003198;28;20434;-72
2023/08/20 03:12:14;;;;;;;11.32;4.82;;;;;;;;;;5009033;28;20053;-71
2023/08/20 03:14:40;;;;;;;13.85;5.10;;;;;;;;;;5012316;28;20125;-72
2023/08/20 03:17:06;;;;;;;15.75;5.13;;;;;;;;;;5014282;28;20493;-72
2023/08/20 03:19:37;;;;;;;13.00;5.40;;;;;;;;;;5018443;28;20061;-72
2023/08/20 03:22:03;;;;;;;15.43;5.32;;;;;;;;;;5025057;28;20099;-72
2023/08/20 03:24:29;;;;;;;15.68;5.00;;;;;;;;;;5023505;28;20482;-72
2023/08/20 03:26:55;;;;;;;12.20;5.60;;;;;;;;;;5017961;28;20037;-72
2023/08/20 03:29:21;;;;;;;15.63;5.38;;;;;;;;;;5012259;28;20050;-72
2023/08/20 03:31:47;;;;;;;14.23;5.10;;;;;;;;;;5012098;28;20048;-72
2023/08/20 03:34:13;;;;;;;15.30;5.15;;;;;;;;;;5016045;28;20402;-72
2023/08/20 03:36:39;;;;;;;12.88;4.00;;;;;;;;;;5010268;28;20049;-72
2023/08/20 03:39:05;;;;;;;15.25;4.03;;;;;;;;;;5022134;28;20056;-72
2023/08/20 03:41:31;;;;;;;15.80;4.22;;;;;;;;;;5015130;28;20054;-72
2023/08/20 03:43:57;;;;;;;13.02;3.90;;;;;;;;;;5011396;28;20073;-72
2023/08/20 03:46:23;;;;;;;13.30;3.60;;;;;;;;;;5006186;28;21889;-72
2023/08/20 03:48:49;;;;;;;17.58;3.90;;;;;;;;;;5026682;28;20481;-72
2023/08/20 03:51:15;;;;;;;10.93;3.47;;;;;;;;;;5020375;28;20073;-72
2023/08/20 03:53:41;;;;;;;11.07;3.47;;;;;;;;;;5016942;28;20057;-72
2023/08/20 03:56:07;;;;;;;14.60;3.83;;;;;;;;;;5025193;28;20038;-71
2023/08/20 03:58:33;;;;;;;13.77;3.97;;;;;;;;;;5021680;28;20069;-72
2023/08/20 04:00:59;;;;;;;15.35;4.13;;;;;;;;;;5011113;28;20469;-72
2023/08/20 04:03:25;;;;;;;12.50;3.78;;;;;;;;;;5011660;28;20054;-72
2023/08/20 04:05:51;;;;;;;16.10;3.95;;;;;;;;;;5020860;28;20094;-72
2023/08/20 04:08:17;;;;;;;15.07;4.18;;;;;;;;;;5022710;28;20053;-72
2023/08/20 04:10:45;;;;;;;15.07;4.47;;;;;;;;;;4995594;28;20397;-72
2023/08/20 04:13:12;;;;;;;12.98;4.07;;;;;;;;;;5011310;28;20046;-72
2023/08/20 04:15:38;;;;;;;15.63;3.80;;;;;;;;;;5013649;28;20077;-72
2023/08/20 04:18:04;;;;;;;14.48;4.00;;;;;;;;;;5013335;28;20088;-72
2023/08/20 04:20:31;;;;;;;14.18;4.13;;;;;;;;;;5018789;28;20070;-71
2023/08/20 04:22:56;;;;;;;17.17;3.97;;;;;;;;;;5010951;28;20136;-72
2023/08/20 04:25:22;;;;;;;12.90;3.78;;;;;;;;;;5002544;28;20125;-71
2023/08/20 04:27:48;;;;;;;13.55;3.90;;;;;;;;;;5006685;28;20049;-72
2023/08/20 04:30:14;;;;;;;14.57;3.85;;;;;;;;;;5029366;28;20090;-71
2023/08/20 04:32:41;;;;;;;13.15;4.10;;;;;;;;;;5021387;28;20050;-72
2023/08/20 04:35:07;;;;;;;13.82;3.95;;;;;;;;;;5007993;28;20124;-72
2023/08/20 04:37:33;;;;;;;17.02;4.13;;;;;;;;;;5019560;28;20059;-72
2023/08/20 04:39:59;;;;;;;14.63;4.15;;;;;;;;;;5013622;28;20042;-72
2023/08/20 04:42:25;;;;;;;12.10;3.85;;;;;;;;;;5011668;28;20067;-72
2023/08/20 04:44:51;;;;;;;18.42;4.82;;;;;;;;;;5010144;28;20049;-72
2023/08/20 04:47:17;;;;;;;15.23;4.10;;;;;;;;;;5030632;28;20529;-72
2023/08/20 04:49:43;;;;;;;18.88;4.50;;;;;;;;;;5028542;28;20041;-72
2023/08/20 04:52:09;;;;;;;14.77;4.20;;;;;;;;;;5030963;28;20042;-72
2023/08/20 04:54:35;;;;;;;12.48;4.03;;;;;;;;;;5004743;28;20053;-72
2023/08/20 04:57:02;;;;;;;17.23;4.35;;;;;;;;;;5000974;28;20046;-72
2023/08/20 04:59:28;;;;;;;14.32;4.22;;;;;;;;;;4998192;28;20514;-72
2023/08/20 05:01:55;;;;;;;16.13;4.53;;;;;;;;;;5023686;28;20041;-72
2023/08/20 05:04:21;;;;;;;16.75;4.60;;;;;;;;;;5016948;28;20048;-72
2023/08/20 05:06:47;;;;;;;14.73;4.53;;;;;;;;;;4994127;28;20506;-72
2023/08/20 05:09:13;;;;;;;13.15;4.60;;;;;;;;;;5011480;28;20509;-72
2023/08/20 05:11:39;;;;;;;19.55;4.57;;;;;;;;;;5012391;28;20060;-72
2023/08/20 05:14:05;;;;;;;17.83;4.90;;;;;;;;;;5021138;28;20050;-72
2023/08/20 05:16:31;;;;;;;17.17;4.68;;;;;;;;;;4998292;28;20045;-72
2023/08/20 05:18:57;;;;;;;12.45;4.57;;;;;;;;;;5028492;28;20045;-72
2023/08/20 05:21:23;;;;;;;16.58;4.90;;;;;;;;;;5029222;28;20045;-72
2023/08/20 05:23:49;;;;;;;10.40;4.00;;;;;;;;;;5018565;28;20046;-72
2023/08/20 05:26:15;;;;;;;14.95;4.57;;;;;;;;;;5006487;28;20049;-72
2023/08/20 05:28:41;;;;;;;20.77;4.57;;;;;;;;;;5006593;28;20052;-72
2023/08/20 05:31:08;;;;;;;17.88;4.88;;;;;;;;;;5016044;28;20057;-72
2023/08/20 05:33:34;;;;;;;17.30;4.80;;;;;;;;;;5016299;28;20042;-72
2023/08/20 05:36:00;;;;;;;16.95;4.93;;;;;;;;;;4999599;28;20042;-72
2023/08/20 05:38:26;;;;;;;21.02;4.65;;;;;;;;;;5030210;28;20049;-72
2023/08/20 05:40:52;;;;;;;18.70;4.50;;;;;;;;;;5011567;28;20056;-72
2023/08/20 05:43:18;;;;;;;20.45;5.03;;;;;;;;;;5027238;28;20118;-72
2023/08/20 05:45:44;;;;;;;21.40;5.18;;;;;;;;;;5020447;28;20505;-72
2023/08/20 05:48:10;;;;;;;20.67;4.50;;;;;;;;;;5007174;28;20106;-72
2023/08/20 05:50:36;;;;;;;18.27;4.53;;;;;;;;;;5018765;28;20045;-72
2023/08/20 05:53:02;;;;;;;15.55;4.63;;;;;;;;;;5018297;28;20049;-72
2023/08/20 05:55:28;;;;;;;13.10;4.43;;;;;;;;;;4994627;28;20046;-72
2023/08/20 05:57:54;;;;;;;14.38;4.80;;;;;;;;;;4994508;28;20053;-71
2023/08/20 06:00:20;;;;;;;18.05;4.70;;;;;;;;;;5000602;28;20436;-72
2023/08/20 06:02:46;;;;;;;16.85;4.72;;;;;;;;;;5009407;28;20038;-72
2023/08/20 06:05:12;;;;;;;18.05;5.00;;;;;;;;;;5026163;27;20116;-72
2023/08/20 06:07:39;;;;;;;18.83;4.97;;;;;;;;;;5013183;28;20054;-72
2023/08/20 06:10:05;;;;;;;17.85;5.13;;;;;;;;;;5025909;28;20057;-72
2023/08/20 06:12:31;;;;;;;12.85;4.00;;;;;;;;;;5012819;28;20095;-72
2023/08/20 06:14:57;;;;;;;15.73;4.85;;;;;;;;;;5021286;28;20045;-72
2023/08/20 06:17:23;;;;;;;15.95;4.63;;;;;;;;;;5032870;27;20138;-71
2023/08/20 06:19:49;;;;;;;15.20;4.68;;;;;;;;;;5019897;28;20489;-71
2023/08/20 06:22:15;;;;;;;14.65;4.45;;;;;;;;;;5011172;28;20057;-72
2023/08/20 06:24:41;;;;;;;14.68;4.38;;;;;;;;;;5015085;28;20058;-71
2023/08/20 06:27:07;;;;;;;16.30;4.40;;;;;;;;;;5016061;28;20048;-71
2023/08/20 06:29:33;;;;;;;16.92;5.05;;;;;;;;;;5009558;28;20042;-70
2023/08/20 06:31:59;;;;;;;21.02;4.90;;;;;;;;;;5016025;28;20046;-71
2023/08/20 06:34:25;;;;;;;19.65;5.22;;;;;;;;;;5022477;28;20090;-71
2023/08/20 06:36:53;;;;;;;15.75;4.85;;;;;;;;;;5022412;28;20494;-72
2023/08/20 06:39:19;;;;;;;17.58;4.80;;;;;;;;;;4994033;28;20116;-71
2023/08/20 06:41:46;;;;;;;15.45;4.45;;;;;;;;;;4996993;28;20050;-71
2023/08/20 06:44:12;;;;;;;17.98;4.10;;;;;;;;;;5015622;28;20552;-71
2023/08/20 06:46:37;;;;;;;19.38;5.03;;;;;;;;;;4996181;28;20049;-72
2023/08/20 06:49:04;;;;;;;16.08;4.78;;;;;;;;;;5000511;28;20098;-72
2023/08/20 06:51:30;;;;;;;12.65;4.28;;;;;;;;;;5026535;28;20046;-71
2023/08/20 06:53:56;;;;;;;25.23;4.88;;;;;;;;;;5012312;28;20488;-72
2023/08/20 06:56:22;;;;;;;18.20;4.57;;;;;;;;;;5013441;28;20102;-71
2023/08/20 06:58:48;;;;;;;17.30;5.10;;;;;;;;;;5009943;28;20061;-71
2023/08/20 07:01:14;;;;;;;20.67;4.55;;;;;;;;;;5021445;28;20069;-71
2023/08/20 07:03:41;;;;;;;15.68;4.70;;;;;;;;;;5018347;28;20490;-71
2023/08/20 07:06:11;;;;;;;17.85;4.53;;;;;;;;;;5011296;28;20057;-71
2023/08/20 07:08:40;;;;;;;13.52;4.38;;;;;;;;;;5016298;28;20049;-71
2023/08/20 07:11:06;;;;;;;19.38;5.03;;;;;;;;;;5003764;28;20485;-71
2023/08/20 07:13:32;;;;;;;13.93;4.03;;;;;;;;;;4996188;28;20053;-71
2023/08/20 07:15:58;;;;;;;17.35;4.50;;;;;;;;;;5010390;28;20038;-71
2023/08/20 07:18:24;;;;;;;19.00;4.88;;;;;;;;;;5012180;28;20480;-72
2023/08/20 07:20:54;;;;;;;17.20;4.90;;;;;;;;;;5012890;28;20441;-71
2023/08/20 07:23:20;;;;;;;15.13;4.38;;;;;;;;;;4991764;28;20061;-71
2023/08/20 07:25:46;;;;;;;14.10;4.18;;;;;;;;;;5013101;28;20085;-72
2023/08/20 07:28:13;;;;;;;17.95;4.70;;;;;;;;;;4995765;28;20057;-71
2023/08/20 07:30:39;;;;;;;13.85;4.38;;;;;;;;;;5016300;28;20123;-72
2023/08/20 07:33:06;;;;;;;13.45;4.82;;;;;;;;;;5016683;28;20812;-71
2023/08/20 07:35:32;;;;;;;19.23;5.05;;;;;;;;;;4996273;28;20038;-70
2023/08/20 07:37:58;;;;;;;19.80;4.75;;;;;;;;;;5017154;28;20077;-71
2023/08/20 07:40:24;;;;;;;17.55;4.63;;;;;;;;;;5016456;28;20052;-70
2023/08/20 07:42:51;;;;;;;21.23;4.88;;;;;;;;;;5014588;28;20058;-71
2023/08/20 07:45:17;;;;;;;16.92;4.82;;;;;;;;;;5022403;28;20049;-70
2023/08/20 07:47:43;;;;;;;13.57;4.25;;;;;;;;;;5009324;28;20053;-70
2023/08/20 07:50:09;;;;;;;14.68;4.80;;;;;;;;;;5005310;28;20132;-71
2023/08/20 07:52:35;;;;;;;15.40;4.22;;;;;;;;;;5016488;28;20049;-72
2023/08/20 07:55:01;;;;;;;19.05;5.35;;;;;;;;;;5024591;28;20069;-73
2023/08/20 07:57:27;;;;;;;17.20;6.90;;;;;;;;;;5024985;28;20503;-71
2023/08/20 07:59:53;;;;;;;14.82;4.82;;;;;;;;;;5000008;28;20054;-71
2023/08/20 08:02:19;;;;;;;14.40;4.15;;;;;;;;;;5023070;28;20506;-71
2023/08/20 08:04:45;;;;;;;15.18;4.50;;;;;;;;;;5014655;28;20077;-72
2023/08/20 08:07:12;;;;;;;16.98;4.10;;;;;;;;;;5002197;28;20102;-70
2023/08/20 08:09:38;;;;;;;13.63;3.67;;;;;;;;;;5004748;28;20052;-71
2023/08/20 08:12:05;;;;;;;10.23;3.70;;;;;;;;;;5017087;28;20085;-72
2023/08/20 08:14:31;;;;;;;16.80;4.03;;;;;;;;;;5017146;27;20420;-71
2023/08/20 08:16:57;;;;;;;12.65;3.75;;;;;;;;;;5021579;27;20092;-71
2023/08/20 08:19:23;;;;;;;12.68;3.78;;;;;;;;;;5006021;28;20049;-72
2023/08/20 08:21:49;;;;;;;16.30;4.07;;;;;;;;;;5013708;28;20060;-75
2023/08/20 08:24:15;;;;;;;11.50;3.95;;;;;;;;;;5002868;28;20485;-72
2023/08/20 08:26:42;;;;;;;14.07;3.60;;;;;;;;;;5019788;28;20045;-72
2023/08/20 08:29:09;;;;;;;14.70;3.83;;;;;;;;;;5012421;28;20042;-71
2023/08/20 08:31:35;;;;;;;12.93;4.25;;;;;;;;;;5017135;28;20073;-75
2023/08/20 08:34:03;;;;;;;15.13;4.15;;;;;;;;;;5023958;28;20065;-73
2023/08/20 08:36:29;;;;;;;13.98;4.00;;;;;;;;;;5014108;28;20135;-72
2023/08/20 08:38:55;;;;;;;13.50;4.50;;;;;;;;;;5018455;28;20045;-72
2023/08/20 08:41:26;;;;;;;9.63;4.03;;;;;;;;;;5015170;28;20049;-72
2023/08/20 08:43:52;;;;;;;12.02;3.97;;;;;;;;;;5023146;28;20049;-71
2023/08/20 08:46:19;;;;;;;11.10;3.67;;;;;;;;;;5040390;27;20038;-72
2023/08/20 08:48:47;;;;;;;13.18;4.03;;;;;;;;;;5017664;28;20046;-72
2023/08/20 08:51:14;;;;;;;16.88;4.45;;;;;;;;;;5012930;28;20096;-72
2023/08/20 08:53:40;;;;;;;13.50;3.90;;;;;;;;;;5022877;28;20049;-72
2023/08/20 08:56:06;;;;;;;15.77;4.60;;;;;;;;;;5023213;28;20068;-71
2023/08/20 08:58:33;;;;;;;16.20;4.05;;;;;;;;;;4994708;28;20076;-73
2023/08/20 09:01:00;;;;;;;13.88;4.30;;;;;;;;;;5026182;28;20076;-72
2023/08/20 09:03:26;;;;;;;16.33;4.28;;;;;;;;;;5027326;28;20650;-72
2023/08/20 09:05:57;;;;;;;12.25;4.05;;;;;;;;;;5029232;28;20072;-72
2023/08/20 09:08:23;;;;;;;18.05;4.10;;;;;;;;;;5012329;28;20084;-72
2023/08/20 09:10:53;;;;;;;15.80;4.30;;;;;;;;;;5022176;28;20096;-72
2023/08/20 09:13:35;;;;;;;15.38;3.70;;;;;;;;;;5025649;28;20387;-72
2023/08/20 09:16:04;;;;;;;14.02;4.57;;;;;;;;;;5011988;28;20485;-72
2023/08/20 09:18:31;;;;;;;12.27;3.65;;;;;;;;;;5029786;28;20041;-72
2023/08/20 09:20:58;;;;;;;10.95;3.80;;;;;;;;;;5030236;28;20369;-71
2023/08/20 09:23:26;;;;;;;13.35;4.47;;;;;;;;;;5012273;28;20046;-72
2023/08/20 09:25:53;;;;;;;11.82;3.72;;;;;;;;;;5027302;28;20048;-72
2023/08/20 09:28:19;;;;;;;13.77;4.50;;;;;;;;;;5030360;28;20041;-72
2023/08/20 09:30:55;;;;;;;15.40;4.55;;;;;;;;;;5011577;28;20049;-71
2023/08/20 09:33:21;;;;;;;13.40;4.47;;;;;;;;;;5029733;28;20084;-72
2023/08/20 09:35:51;;;;;;;12.43;3.67;;;;;;;;;;5029288;28;20517;-72
2023/08/20 09:38:23;;;;;;;14.07;3.75;;;;;;;;;;5011549;28;20045;-72
2023/08/20 09:40:50;;;;;;;12.10;3.75;;;;;;;;;;5023017;28;20489;-72
2023/08/20 09:43:20;;;;;;;15.27;4.43;;;;;;;;;;5030110;28;20049;-72
2023/08/20 09:45:47;;;;;;;13.30;3.80;;;;;;;;;;5028982;28;20042;-72
2023/08/20 09:48:14;;;;;;;10.10;3.70;;;;;;;;;;5028074;28;20049;-72
2023/08/20 09:50:40;;;;;;;15.57;4.80;;;;;;;;;;5009192;28;20516;-72
2023/08/20 09:53:10;;;;;;;15.68;4.00;;;;;;;;;;5009619;28;20060;-72
2023/08/20 09:55:39;;;;;;;15.10;4.35;;;;;;;;;;5009579;28;20045;-73
2023/08/20 09:58:06;;;;;;;14.82;4.38;;;;;;;;;;5027946;28;20042;-72
2023/08/20 10:00:32;;;;;;;14.68;4.55;;;;;;;;;;5009147;28;20393;-72
2023/08/20 10:02:59;;;;;;;17.45;4.15;;;;;;;;;;5010286;28;20053;-72
2023/08/20 10:05:25;;;;;;;17.38;4.40;;;;;;;;;;5009880;28;20046;-71
2023/08/20 10:07:51;;;;;;;11.90;4.28;;;;;;;;;;4990775;28;20062;-72
2023/08/20 10:10:18;;;;;;;12.05;4.07;;;;;;;;;;5010265;28;20103;-72
2023/08/20 10:12:45;;;;;;;15.93;3.85;;;;;;;;;;5012985;28;20136;-72
2023/08/20 10:15:12;;;;;;;14.65;3.92;;;;;;;;;;5008877;28;20046;-72
2023/08/20 10:17:38;;;;;;;14.68;4.30;;;;;;;;;;5009590;28;20049;-72
2023/08/20 10:20:05;;;;;;;12.35;3.90;;;;;;;;;;5017487;28;20087;-72
2023/08/20 10:22:37;;;;;;;11.90;3.78;;;;;;;;;;5028562;28;20505;-72
2023/08/20 10:25:05;;;;;;;13.10;3.70;;;;;;;;;;5011297;28;20050;-72
2023/08/20 10:27:32;;;;;;;13.23;4.10;;;;;;;;;;5027699;28;20505;-72
2023/08/20 10:29:59;;;;;;;14.00;3.88;;;;;;;;;;4992542;28;20098;-72
2023/08/20 10:32:46;;;;;;;13.80;4.15;;;;;;;;;;5016332;28;20361;-72
2023/08/20 10:35:12;;;;;;;9.27;3.60;;;;;;;;;;5028685;28;20052;-72
2023/08/20 10:37:40;;;;;;;12.00;3.70;;;;;;;;;;5029124;28;20056;-72
2023/08/20 10:40:06;;;;;;;10.32;3.65;;;;;;;;;;4998726;28;20050;-72
2023/08/20 10:42:33;;;;;;;10.35;3.67;;;;;;;;;;5008664;28;20050;-72
2023/08/20 10:45:04;;;;;;;15.68;3.80;;;;;;;;;;5009042;28;20069;-72
2023/08/20 10:47:44;;;;;;;12.70;4.18;;;;;;;;;;5011655;28;20102;-72
2023/08/20 10:50:11;;;;;;;12.13;3.90;;;;;;;;;;5028483;28;20053;-72
2023/08/20 10:52:40;;;;;;;12.25;4.03;;;;;;;;;;5028983;28;20424;-72
2023/08/20 10:55:08;;;;;;;18.95;3.60;;;;;;;;;;5010864;28;20053;-72
2023/08/20 10:57:35;;;;;;;10.20;3.95;;;;;;;;;;5027701;28;20053;-72
2023/08/20 11:00:06;;;;;;;15.07;4.32;;;;;;;;;;5028405;28;20366;-72
2023/08/20 11:02:33;;;;;;;11.48;3.55;;;;;;;;;;4992090;28;20086;-72
2023/08/20 11:04:59;;;;;;;10.73;4.05;;;;;;;;;;4999342;28;20128;-72
2023/08/20 11:07:27;;;;;;;11.05;3.97;;;;;;;;;;5007576;28;20704;-72
2023/08/20 11:09:53;;;;;;;14.35;4.13;;;;;;;;;;5027481;28;20114;-72
2023/08/20 11:12:21;;;;;;;12.52;3.85;;;;;;;;;;5009538;28;20545;-72
2023/08/20 11:14:47;;;;;;;7.38;3.20;;;;;;;;;;5026849;28;20049;-72
2023/08/20 11:17:14;;;;;;;11.05;3.67;;;;;;;;;;5028172;28;20049;-72
2023/08/20 11:19:40;;;;;;;13.63;4.15;;;;;;;;;;5022014;28;20046;-73
2023/08/20 11:22:06;;;;;;;10.77;3.92;;;;;;;;;;5009147;28;20474;-72
2023/08/20 11:24:32;;;;;;;13.07;4.57;;;;;;;;;;5019671;28;20128;-72
2023/08/20 11:26:58;;;;;;;13.75;3.88;;;;;;;;;;5030272;28;20485;-72
2023/08/20 11:29:26;;;;;;;14.48;4.15;;;;;;;;;;5030787;28;20404;-72
2023/08/20 11:31:52;;;;;;;11.57;4.10;;;;;;;;;;5012760;28;20049;-72
2023/08/20 11:34:19;;;;;;;12.95;4.10;;;;;;;;;;5028511;28;20529;-72
2023/08/20 11:36:45;;;;;;;13.05;3.80;;;;;;;;;;5012034;28;20077;-72
2023/08/20 11:39:11;;;;;;;10.45;3.90;;;;;;;;;;4993003;28;20092;-71
2023/08/20 11:41:37;;;;;;;12.80;4.00;;;;;;;;;;5003106;28;20053;-77
2023/08/20 11:44:04;;;;;;;14.40;4.28;;;;;;;;;;4994949;28;20049;-72
2023/08/20 11:46:30;;;;;;;12.75;3.90;;;;;;;;;;5011608;28;20517;-72
2023/08/20 11:49:08;;;;;;;13.00;4.22;;;;;;;;;;5027977;28;20394;-72
2023/08/20 11:51:45;;;;;;;9.00;3.20;;;;;;;;;;4996160;28;20046;-73
2023/08/20 11:54:12;;;;;;;12.32;3.45;;;;;;;;;;5012057;28;20050;-73
2023/08/20 11:56:48;;;;;;;14.32;3.80;;;;;;;;;;5015477;28;20041;-73
2023/08/20 11:59:15;;;;;;;12.32;4.05;;;;;;;;;;5030956;28;20533;-72
2023/08/20 12:01:41;;;;;;;10.48;4.05;;;;;;;;;;5013451;28;20049;-73
2023/08/20 12:04:08;;;;;;;11.30;3.42;;;;;;;;;;5013363;28;20502;-72
2023/08/20 12:06:35;;;;;;;11.27;3.58;;;;;;;;;;5007791;28;20501;-73
2023/08/20 12:09:04;;;;;;;11.82;3.65;;;;;;;;;;4994522;28;20141;-73
2023/08/20 12:11:30;;;;;;;12.30;3.47;;;;;;;;;;5011566;28;20116;-73
2023/08/20 12:13:57;;;;;;;13.52;3.55;;;;;;;;;;5010695;28;20536;-73
2023/08/20 12:16:26;;;;;;;7.82;3.28;;;;;;;;;;5020781;28;20071;-72
2023/08/20 12:18:52;;;;;;;12.95;3.65;;;;;;;;;;5008705;28;20952;-73
2023/08/20 12:21:18;;;;;;;13.05;3.67;;;;;;;;;;5030225;28;20399;-73
2023/08/20 12:23:44;;;;;;;13.02;3.60;;;;;;;;;;5024093;28;20042;-72
2023/08/20 12:26:10;;;;;;;14.55;3.40;;;;;;;;;;5011539;28;20054;-72
2023/08/20 12:28:36;;;;;;;12.43;3.65;;;;;;;;;;4998111;28;20064;-73
2023/08/20 12:31:03;;;;;;;10.63;3.42;;;;;;;;;;5031508;28;20045;-72
2023/08/20 12:33:29;;;;;;;10.38;3.38;;;;;;;;;;5030283;28;20053;-72
2023/08/20 12:35:55;;;;;;;11.60;3.53;;;;;;;;;;5011935;28;20392;-73
2023/08/20 12:38:21;;;;;;;9.80;3.70;;;;;;;;;;5011237;28;20061;-72
2023/08/20 12:40:47;;;;;;;11.80;3.55;;;;;;;;;;5011476;28;20087;-73
2023/08/20 12:43:14;;;;;;;12.80;3.70;;;;;;;;;;4999256;28;20080;-72
2023/08/20 12:45:40;;;;;;;12.73;3.97;;;;;;;;;;5013231;28;20469;-73
2023/08/20 12:48:07;;;;;;;9.40;3.10;;;;;;;;;;5029703;28;20049;-72
2023/08/20 12:50:33;;;;;;;13.82;3.50;;;;;;;;;;5029918;28;20049;-73
2023/08/20 12:52:59;;;;;;;14.38;3.65;;;;;;;;;;5001549;28;20064;-72
2023/08/20 12:55:26;;;;;;;12.35;3.58;;;;;;;;;;5010693;28;20401;-72
2023/08/20 12:57:58;;;;;;;11.88;4.03;;;;;;;;;;5010732;28;20046;-72
2023/08/20 13:00:25;;;;;;;7.70;3.22;;;;;;;;;;5011277;28;20064;-72
2023/08/20 13:02:51;;;;;;;9.73;4.13;;;;;;;;;;4992467;28;20061;-72
2023/08/20 13:05:18;;;;;;;12.48;3.70;;;;;;;;;;5011019;28;20562;-72
2023/08/20 13:07:44;;;;;;;12.48;3.60;;;;;;;;;;5010069;28;20057;-73
2023/08/20 13:10:10;;;;;;;13.10;3.65;;;;;;;;;;5030119;28;20176;-73
2023/08/20 13:12:37;;;;;;;11.07;3.10;;;;;;;;;;5017933;28;20060;-73
2023/08/20 13:15:03;;;;;;;10.40;3.15;;;;;;;;;;5029448;27;20046;-72
2023/08/20 13:17:30;;;;;;;9.15;3.30;;;;;;;;;;5004220;28;20044;-72
2023/08/20 13:19:56;;;;;;;8.10;3.67;;;;;;;;;;5004742;28;20150;-72
2023/08/20 13:22:22;;;;;;;14.82;6.43;;;;;;;;;;5011811;28;20057;-73
2023/08/20 13:24:49;;;;;;;10.45;3.47;;;;;;;;;;5058478;27;20041;-72
2023/08/20 13:27:15;;;;;;;13.32;3.55;;;;;;;;;;5009636;28;20053;-71
2023/08/20 13:29:41;;;;;;;12.18;3.22;;;;;;;;;;5040188;27;20051;-73
2023/08/20 13:32:07;;;;;;;9.43;3.20;;;;;;;;;;5100236;27;20508;-72
2023/08/20 13:34:33;;;;;;;11.73;3.15;;;;;;;;;;5081279;27;20432;-73
2023/08/20 13:36:59;;;;;;;10.52;3.50;;;;;;;;;;5043849;27;20048;-72
2023/08/20 13:39:25;;;;;;;9.90;3.28;;;;;;;;;;5029127;28;20053;-72
2023/08/20 13:41:51;;;;;;;10.27;3.03;;;;;;;;;;5026012;28;20106;-73
2023/08/20 13:44:17;;;;;;;10.27;3.25;;;;;;;;;;5009867;28;20045;-72
2023/08/20 13:46:43;;;;;;;11.93;3.20;;;;;;;;;;5010326;28;20042;-73
2023/08/20 13:49:09;;;;;;;8.63;3.00;;;;;;;;;;4992756;28;20042;-72
2023/08/20 13:51:36;;;;;;;11.27;2.97;;;;;;;;;;4998496;28;20046;-69
2023/08/20 13:54:02;;;;;;;9.93;3.42;;;;;;;;;;5026591;28;20038;-72
2023/08/20 13:56:29;;;;;;;9.98;3.08;;;;;;;;;;5023565;28;20069;-72
2023/08/20 13:58:55;;;;;;;7.18;2.83;;;;;;;;;;5026530;28;20481;-69
2023/08/20 14:01:21;;;;;;;8.27;2.63;;;;;;;;;;5073070;28;20040;-72
2023/08/20 14:03:47;;;;;;;8.35;2.85;;;;;;;;;;5033834;28;20038;-72
2023/08/20 14:06:13;;;;;;;8.48;2.92;;;;;;;;;;5010072;28;20091;-71
2023/08/20 14:08:40;;;;;;;10.30;2.92;;;;;;;;;;5008338;28;20081;-71
2023/08/20 14:11:06;;;;;;;11.15;3.00;;;;;;;;;;5006943;28;20042;-72
2023/08/20 14:13:32;;;;;;;7.80;2.65;;;;;;;;;;5006619;28;20483;-71
2023/08/20 14:15:58;;;;;;;5.47;2.60;;;;;;;;;;5027389;28;20437;-72
2023/08/20 14:18:24;;;;;;;11.10;2.97;;;;;;;;;;5028047;28;20045;-71
2023/08/20 14:20:50;;;;;;;8.43;2.70;;;;;;;;;;5015657;28;20464;-72
2023/08/20 14:23:16;;;;;;;5.32;2.30;;;;;;;;;;5026741;28;20044;-70
2023/08/20 14:25:42;;;;;;;10.80;2.97;;;;;;;;;;5014501;28;20053;-73
2023/08/20 14:28:08;;;;;;;6.95;3.08;;;;;;;;;;5014904;28;20096;-72